Aérodrome :
LOGIN :

S'inscrire | Disclaimer

   EN    FR    IT 

 










Légende :    VFR   VFR Marginal   IFR   IFR Intensif   IFR Très Intensif
Visi : 
Plafond : 
>= 8 km
>= 3000ft
5 à 8 km
1000 à 3000 ft
1500m à 5 km
500 à 1000 ft
800 à 1500m
200 à 500 ft
< 800m
< 200 ft
Symboles :   Orages  Brouillard  Fortes neiges  Fortes précipitations  Vent > 20 kt
SIGMETs :   Divers  Orages  Givrage  Turbulence  Onde Orograph.  Cendres Volcan.







- Altitude de l'aérodrome : 157 ft
- Code IATA : SXF


EDDB - Berlin Schönefeld

DERNIER METAR :
  • 190420Z 24015KT CAVOK 03/01 Q1006 TEMPO 25015G25KT

METARs EXPIRÉS :
  • 190350Z 24015KT 9999 FEW046 BKN067 03/01 Q1007 TEMPO 25015G25KT
  • 190320Z 24014KT 9999 BKN042 03/02 Q1007 TEMPO 25015G25KT
  • 190250Z 25013KT CAVOK 03/02 Q1007 TEMPO 25015G25KT
  • 190220Z 24012KT 9999 FEW044 03/02 Q1007 TEMPO 25015G25KT
  • 190150Z 24011KT 9999 FEW044 02/01 Q1008 TEMPO 25015G25KT

TAF TAF EDDB
Valide du 19 à 00h jusqu'au 20 à 00h UTC


182300Z 1900/1924 25013KT 9999 SCT013
TEMPO 1900/1909 BKN012
PROB30
TEMPO 1900/1906 25015G25KT
BECMG 1906/1909 26015G25KT
TEMPO 1909/1918 26020G30KT SHRAGS BKN012CB
Pas de NOTAMs connus pour ce terrain.



MET'MAP, la Météo Aéronautique d'un coup d'oeil ! - Copyright ORBIFLY Décembre 2007 - Disclaimer

ORBIFLY MET'MAP TEAM :

Programmation & Développement : Alexandra Zaïnal
Conception & Développement : Baudouin d'Aumeries
Co-Programmation & Développement : Marc-Olivier Méhu
Soutien technique & logistique : Manuel Goepfert

Contact : metmap@orbifly.com




SOURCES & CREDITS :

   NOAA